ウランバートル の空港の天気 - METARとTAF

チンギスハーン国際空港 ( ZMUB / ULN ) - モンゴル ウランバートル
飛行場実況気象(Metar)
観測時間05/28 19:00 ULAT (05/28 11:00 UTC)
風向・風速北北西 5m/s
視程10km以上
天気現象
少しの雲 雲底高度 910m
全天の4割程度の雲 雲底高度 1010m
気温6℃
湿度61%
気圧1007hPa
METARZMUB 281100Z 34005MPS 9999 FEW030CB SCT033 06/M01 Q1007 NOSIG RMK QFE649.1 62 MOP
過去の天気等 Google飛行場航空写真 Wunderground天気予報

過去48時間のMETAR

飛行場予報(TAF)
発表時間: 5/28 18:54 ULAT (5/28 10:54 UTC)
予報対象時間: 28日20時 ULAT ~ 30日2時 ULAT
風向・風速不定 2m/s
視程10km以上
少しの積乱雲 雲底高度 910m
全天の8割程度の雲 雲底高度 1010m
28日22時 ULAT ~ 29日10時 ULAT に一時的に
視程6000m
天気現象雪雨
少しの積乱雲 雲底高度 820m
全天の8割程度の雲 雲底高度 910m
29日8時 ULAT ~ 29日10時 ULAT に徐々に
風向・風速北北西 9m/s
29日19時 ULAT ~ 29日21時 ULAT に徐々に
風向・風速不定 2m/s
全天の4割程度の雲 雲底高度 1010m
TAF ZMUB 281054Z 2812/2918 VRB02MPS 9999 FEW030CB BKN033 TNM03/2822Z TX12/2907Z
TEMPO 2814/2902 6000 SNRA FEW027CB BKN030
BECMG 2900/2902 33009MPS
BECMG 2911/2913 VRB02MPS SCT033